Time;durP1;ratioP1;P1;durP2;ratioP2;P2;SDS_P1;SDS_P2;PMS_P1;PMS_P2;Temp;Humidity;BMP_temperature;BMP_pressure;BME280_temperature;BME280_humidity;BME280_pressure;Samples;Min_cycle;Max_cycle;Signal;HPM_P1;HPM_P2
2023/04/17 00:02:03;;;;;;;;;8.50;7.25;;;;;;;;5076628;28;11462;-83
2023/04/17 00:04:31;;;;;;;;;6.50;6.50;;;;;;;;5087691;28;11465;-86
2023/04/17 00:07:02;;;;;;;;;7.00;6.00;;;;;;;;5076576;28;11532;-87
2023/04/17 00:09:29;;;;;;;;;8.50;7.25;;;;;;;;5075229;28;11418;-88
2023/04/17 00:11:57;;;;;;;;;6.75;6.75;;;;;;;;5087969;28;11546;-89
2023/04/17 00:14:24;;;;;;;;;7.00;5.00;;;;;;;;5069400;28;11556;-87
2023/04/17 00:16:51;;;;;;;;;2.75;2.75;;;;;;;;5081815;28;11436;-84
2023/04/17 00:19:20;;;;;;;;;7.50;6.00;;;;;;;;5058871;28;11486;-84
2023/04/17 00:21:47;;;;;;;;;7.25;7.25;;;;;;;;5072324;28;11568;-87
2023/04/17 00:24:14;;;;;;;;;8.75;7.50;;;;;;;;5080026;28;11444;-85
2023/04/17 00:26:42;;;;;;;;;10.25;7.00;;;;;;;;5086059;28;11582;-85
2023/04/17 00:29:09;;;;;;;;;9.00;7.00;;;;;;;;5068921;28;11609;-84
2023/04/17 00:31:36;;;;;;;;;6.25;6.25;;;;;;;;5080455;28;11447;-84
2023/04/17 00:34:03;;;;;;;;;8.00;7.00;;;;;;;;5077721;28;12361;-85
2023/04/17 00:36:32;;;;;;;;;7.00;6.25;;;;;;;;5074123;28;11553;-87
2023/04/17 00:39:00;;;;;;;;;7.50;7.50;;;;;;;;5078477;28;11581;-87
2023/04/17 00:41:27;;;;;;;;;7.00;5.00;;;;;;;;5070590;28;11802;-84
2023/04/17 00:43:54;;;;;;;;;8.50;6.75;;;;;;;;5087583;28;11430;-86
2023/04/17 00:46:21;;;;;;;;;8.25;6.25;;;;;;;;5073573;28;11590;-85
2023/04/17 00:48:49;;;;;;;;;8.00;6.75;;;;;;;;5078562;28;11462;-82
2023/04/17 00:51:16;;;;;;;;;8.50;6.00;;;;;;;;5086947;28;11635;-82
2023/04/17 00:53:46;;;;;;;;;10.00;7.00;;;;;;;;5090501;28;11435;-85
2023/04/17 00:56:14;;;;;;;;;7.00;7.00;;;;;;;;5075328;28;11581;-83
2023/04/17 00:58:41;;;;;;;;;6.00;3.25;;;;;;;;5077750;28;11479;-83
2023/04/17 01:01:09;;;;;;;;;7.25;7.25;;;;;;;;5068464;28;11413;-83
2023/04/17 01:03:36;;;;;;;;;6.50;6.50;;;;;;;;5069524;28;12293;-86
2023/04/17 01:06:04;;;;;;;;;3.75;3.75;;;;;;;;5069948;28;11545;-87
2023/04/17 01:08:38;;;;;;;;;5.75;5.75;;;;;;;;5072677;28;11455;-88
2023/04/17 01:11:07;;;;;;;;;6.00;6.00;;;;;;;;5072979;28;11438;-90
2023/04/17 01:13:34;;;;;;;;;9.00;9.00;;;;;;;;5073524;28;11613;-91
2023/04/17 01:16:02;;;;;;;;;6.50;6.50;;;;;;;;5072076;28;11618;-91
2023/04/17 01:18:29;;;;;;;;;6.75;6.75;;;;;;;;5073726;28;11514;-90
2023/04/17 01:20:56;;;;;;;;;8.25;7.50;;;;;;;;5081861;28;11433;-86
2023/04/17 01:23:23;;;;;;;;;8.00;7.50;;;;;;;;5082186;28;11641;-86
2023/04/17 01:25:52;;;;;;;;;7.00;7.00;;;;;;;;5078002;28;12236;-86
2023/04/17 01:28:19;;;;;;;;;8.75;7.25;;;;;;;;5074688;28;11660;-90
2023/04/17 01:30:46;;;;;;;;;5.50;3.25;;;;;;;;5073932;28;11484;-87
2023/04/17 01:33:14;;;;;;;;;7.00;7.00;;;;;;;;5074303;28;11675;-88
2023/04/17 01:35:41;;;;;;;;;6.50;6.50;;;;;;;;5074350;28;11509;-89
2023/04/17 01:38:11;;;;;;;;;8.25;6.25;;;;;;;;5072365;28;11486;-85
2023/04/17 01:40:38;;;;;;;;;7.00;7.00;;;;;;;;5065082;28;11665;-87
2023/04/17 01:43:07;;;;;;;;;11.25;8.50;;;;;;;;5074737;28;11499;-83
2023/04/17 01:45:35;;;;;;;;;9.50;8.00;;;;;;;;5073215;28;11537;-83
2023/04/17 01:48:02;;;;;;;;;8.50;8.50;;;;;;;;5072409;28;12443;-84
2023/04/17 01:50:29;;;;;;;;;9.25;7.75;;;;;;;;5077605;28;11534;-81
2023/04/17 01:52:56;;;;;;;;;5.75;5.75;;;;;;;;5080269;28;11510;-84
2023/04/17 01:55:24;;;;;;;;;15.50;11.75;;;;;;;;5072634;28;11618;-84
2023/04/17 01:57:52;;;;;;;;;10.50;8.25;;;;;;;;5078763;28;11549;-88
2023/04/17 02:00:21;;;;;;;;;11.75;8.00;;;;;;;;5074495;28;11534;-88
2023/04/17 02:02:49;;;;;;;;;8.00;8.00;;;;;;;;5074900;28;11548;-83
2023/04/17 02:05:16;;;;;;;;;8.25;8.25;;;;;;;;5070146;28;11503;-87
2023/04/17 02:07:44;;;;;;;;;8.00;7.25;;;;;;;;5074906;28;11619;-89
2023/04/17 02:10:11;;;;;;;;;11.25;10.75;;;;;;;;5071765;28;11526;-86
2023/04/17 02:12:38;;;;;;;;;9.25;8.00;;;;;;;;5079983;28;12364;-85
2023/04/17 02:15:08;;;;;;;;;13.75;11.75;;;;;;;;5071409;28;11531;-87
2023/04/17 02:17:37;;;;;;;;;10.25;9.75;;;;;;;;5073211;28;11612;-88
2023/04/17 02:20:06;;;;;;;;;8.75;8.00;;;;;;;;5077538;28;11589;-85
2023/04/17 02:22:33;;;;;;;;;10.50;10.50;;;;;;;;5074368;28;11645;-85
2023/04/17 02:25:00;;;;;;;;;11.25;11.25;;;;;;;;5084180;28;11624;-85
2023/04/17 02:27:28;;;;;;;;;11.25;7.25;;;;;;;;5083510;28;11598;-87
2023/04/17 02:29:56;;;;;;;;;11.50;11.50;;;;;;;;5070999;28;11513;-87
2023/04/17 02:32:23;;;;;;;;;12.75;10.50;;;;;;;;5076919;28;11474;-89
2023/04/17 02:34:53;;;;;;;;;10.25;10.25;;;;;;;;5088689;28;11664;-85
2023/04/17 02:37:20;;;;;;;;;12.75;12.75;;;;;;;;5060135;28;11497;-85
2023/04/17 02:39:47;;;;;;;;;16.25;12.50;;;;;;;;5078890;28;11553;-87
2023/04/17 02:42:15;;;;;;;;;12.75;11.50;;;;;;;;5074998;28;11568;-84
2023/04/17 02:44:42;;;;;;;;;15.50;11.50;;;;;;;;5079514;28;11653;-82
2023/04/17 02:47:09;;;;;;;;;11.00;11.00;;;;;;;;5066589;28;11714;-82
2023/04/17 02:49:36;;;;;;;;;13.75;13.75;;;;;;;;5081598;28;12455;-84
2023/04/17 02:52:05;;;;;;;;;16.00;15.75;;;;;;;;5075368;28;12440;-87
2023/04/17 02:54:33;;;;;;;;;12.00;12.00;;;;;;;;5074032;28;11596;-87
2023/04/17 02:57:00;;;;;;;;;16.00;14.75;;;;;;;;5071383;28;11619;-88
2023/04/17 02:59:27;;;;;;;;;14.75;14.50;;;;;;;;5081940;28;11557;-88
2023/04/17 03:01:58;;;;;;;;;16.00;15.00;;;;;;;;5089205;28;11580;-89
2023/04/17 03:04:26;;;;;;;;;13.50;12.25;;;;;;;;5081213;28;11664;-89
2023/04/17 03:06:54;;;;;;;;;18.25;18.25;;;;;;;;5089956;28;11544;-91
2023/04/17 03:09:23;;;;;;;;;13.00;13.00;;;;;;;;5090037;28;11647;-88
2023/04/17 03:11:50;;;;;;;;;18.50;17.00;;;;;;;;5073820;28;11546;-89
2023/04/17 03:14:18;;;;;;;;;14.25;14.25;;;;;;;;5072379;28;11591;-85
2023/04/17 03:16:45;;;;;;;;;15.00;12.50;;;;;;;;5088001;28;11522;-83
2023/04/17 03:19:12;;;;;;;;;16.75;16.75;;;;;;;;5083143;28;11682;-87
2023/04/17 03:21:39;;;;;;;;;17.75;17.75;;;;;;;;5082316;28;11658;-85
2023/04/17 03:24:10;;;;;;;;;18.75;14.25;;;;;;;;5071084;28;11544;-87
2023/04/17 03:26:38;;;;;;;;;16.00;16.00;;;;;;;;5079788;28;11618;-82
2023/04/17 03:29:05;;;;;;;;;22.75;21.00;;;;;;;;5067594;28;11698;-83
2023/04/17 03:31:33;;;;;;;;;22.75;19.00;;;;;;;;5074004;28;11534;-83
2023/04/17 03:34:00;;;;;;;;;22.75;18.25;;;;;;;;5074887;28;11527;-82
2023/04/17 03:36:27;;;;;;;;;17.00;17.00;;;;;;;;5069534;28;11718;-84
2023/04/17 03:38:54;;;;;;;;;12.25;10.75;;;;;;;;5074399;28;11560;-84
2023/04/17 03:41:21;;;;;;;;;8.75;6.50;;;;;;;;5069419;28;11578;-82
2023/04/17 03:43:50;;;;;;;;;18.00;15.75;;;;;;;;5071285;28;11683;-83
2023/04/17 03:46:18;;;;;;;;;15.25;12.75;;;;;;;;5068402;28;11694;-81
2023/04/17 03:48:45;;;;;;;;;20.75;18.50;;;;;;;;5070679;28;11692;-82
2023/04/17 03:51:12;;;;;;;;;22.50;19.75;;;;;;;;5073091;28;11705;-84
2023/04/17 03:53:41;;;;;;;;;21.75;21.25;;;;;;;;5072662;28;11562;-89
2023/04/17 03:56:09;;;;;;;;;19.50;16.00;;;;;;;;5059216;28;11658;-83
2023/04/17 03:58:36;;;;;;;;;12.75;10.25;;;;;;;;5070128;28;11563;-88
2023/04/17 04:01:09;;;;;;;;;18.00;18.00;;;;;;;;5074208;28;11662;-86
2023/04/17 04:03:36;;;;;;;;;20.00;20.00;;;;;;;;5069127;28;11725;-84
2023/04/17 04:06:06;;;;;;;;;21.75;19.75;;;;;;;;5074469;28;11577;-85
2023/04/17 04:08:34;;;;;;;;;18.50;14.75;;;;;;;;5072364;28;11579;-88
2023/04/17 04:11:02;;;;;;;;;20.00;18.00;;;;;;;;5076823;28;11548;-87
2023/04/17 04:13:29;;;;;;;;;20.25;17.50;;;;;;;;5067509;28;11610;-83
2023/04/17 04:15:56;;;;;;;;;25.25;23.50;;;;;;;;5071309;28;11847;-84
2023/04/17 04:18:25;;;;;;;;;32.25;30.75;;;;;;;;5086735;28;11547;-83
2023/04/17 04:20:52;;;;;;;;;28.00;22.00;;;;;;;;5078623;28;11611;-84
2023/04/17 04:23:20;;;;;;;;;31.00;24.00;;;;;;;;5072539;28;11593;-83
2023/04/17 04:25:48;;;;;;;;;28.25;26.00;;;;;;;;5076021;28;11600;-87
2023/04/17 04:28:16;;;;;;;;;32.75;29.25;;;;;;;;5085678;28;11568;-85
2023/04/17 04:30:49;;;;;;;;;31.00;26.25;;;;;;;;5081894;28;11472;-82
2023/04/17 04:33:18;;;;;;;;;25.75;22.75;;;;;;;;5073853;28;11565;-83
2023/04/17 04:35:47;;;;;;;;;33.00;29.25;;;;;;;;5075306;28;12329;-82
2023/04/17 04:38:16;;;;;;;;;30.25;27.25;;;;;;;;5078863;28;11567;-89
2023/04/17 04:40:51;;;;;;;;;28.25;24.25;;;;;;;;5073304;28;11660;-84
2023/04/17 04:43:18;;;;;;;;;38.50;27.00;;;;;;;;5086700;28;11546;-83
2023/04/17 04:45:45;;;;;;;;;31.25;27.50;;;;;;;;5074378;28;11572;-85
2023/04/17 04:48:12;;;;;;;;;25.00;24.25;;;;;;;;5082683;28;11710;-82
2023/04/17 04:50:40;;;;;;;;;32.75;28.75;;;;;;;;5076745;28;11597;-90
2023/04/17 04:53:08;;;;;;;;;35.00;30.75;;;;;;;;5071743;28;11563;-89
2023/04/17 04:55:36;;;;;;;;;32.50;29.75;;;;;;;;5075133;28;11594;-84
2023/04/17 04:58:03;;;;;;;;;38.50;34.00;;;;;;;;5063871;28;11703;-91
2023/04/17 05:00:30;;;;;;;;;28.75;25.50;;;;;;;;5073043;28;11500;-92
2023/04/17 05:02:57;;;;;;;;;33.00;30.25;;;;;;;;5071466;28;11719;-85
2023/04/17 05:05:25;;;;;;;;;28.75;27.25;;;;;;;;5067643;28;11780;-74
2023/04/17 05:07:52;;;;;;;;;29.50;27.50;;;;;;;;5068199;28;11595;-77
2023/04/17 05:10:21;;;;;;;;;38.50;35.50;;;;;;;;5071812;28;11597;-74
2023/04/17 05:12:48;;;;;;;;;24.25;23.50;;;;;;;;5067634;28;11579;-72
2023/04/17 05:15:15;;;;;;;;;30.25;30.25;;;;;;;;5066870;28;11566;-75
2023/04/17 05:17:43;;;;;;;;;28.75;23.25;;;;;;;;5067169;28;11682;-72
2023/04/17 05:20:12;;;;;;;;;29.00;25.25;;;;;;;;5067861;28;11577;-75
2023/04/17 05:22:39;;;;;;;;;34.25;29.75;;;;;;;;5068005;28;11569;-72
2023/04/17 05:25:07;;;;;;;;;35.75;28.25;;;;;;;;5068501;28;11608;-75
2023/04/17 05:27:35;;;;;;;;;34.50;32.00;;;;;;;;5067729;28;11657;-73
2023/04/17 05:30:03;;;;;;;;;35.75;32.50;;;;;;;;5066501;28;11905;-74
2023/04/17 05:32:30;;;;;;;;;47.00;35.50;;;;;;;;5067143;28;12333;-71
2023/04/17 05:34:57;;;;;;;;;34.25;33.75;;;;;;;;5066517;28;11571;-70
2023/04/17 05:37:24;;;;;;;;;27.75;27.75;;;;;;;;5066305;28;11679;-70
2023/04/17 05:39:51;;;;;;;;;29.25;28.75;;;;;;;;5066697;28;11615;-70
2023/04/17 05:42:19;;;;;;;;;35.25;33.50;;;;;;;;5071761;28;11522;-69
2023/04/17 05:44:47;;;;;;;;;37.75;34.75;;;;;;;;5066980;28;11655;-72
2023/04/17 05:47:14;;;;;;;;;26.50;25.50;;;;;;;;5071461;28;11644;-69
2023/04/17 05:49:42;;;;;;;;;40.00;33.00;;;;;;;;5066712;28;11642;-70
2023/04/17 05:52:09;;;;;;;;;38.75;32.50;;;;;;;;5073999;28;11577;-72
2023/04/17 05:54:37;;;;;;;;;31.75;30.00;;;;;;;;5074944;28;11596;-70
2023/04/17 05:57:04;;;;;;;;;32.25;27.00;;;;;;;;5073327;28;11683;-73
2023/04/17 05:59:31;;;;;;;;;42.75;36.50;;;;;;;;5069245;28;11514;-71
2023/04/17 06:02:00;;;;;;;;;34.00;29.75;;;;;;;;5074907;28;11475;-69
2023/04/17 06:04:28;;;;;;;;;32.50;31.75;;;;;;;;5077127;28;11525;-70
2023/04/17 06:06:55;;;;;;;;;32.25;31.75;;;;;;;;5070499;28;11625;-71
2023/04/17 06:09:22;;;;;;;;;34.50;30.00;;;;;;;;5074467;28;11615;-72
2023/04/17 06:11:49;;;;;;;;;31.50;31.50;;;;;;;;5077500;28;11505;-71
2023/04/17 06:14:17;;;;;;;;;29.50;27.00;;;;;;;;5073776;28;11513;-69
2023/04/17 06:16:44;;;;;;;;;35.00;31.50;;;;;;;;5070019;28;11527;-71
2023/04/17 06:19:13;;;;;;;;;35.25;34.50;;;;;;;;5073584;28;11513;-69
2023/04/17 06:21:40;;;;;;;;;39.00;33.75;;;;;;;;5076353;28;11534;-72
2023/04/17 06:26:28;;;;;;;;;32.00;27.00;;;;;;;;5101890;27;13608;-76
2023/04/17 06:28:55;;;;;;;;;41.50;36.00;;;;;;;;5101187;28;11645;-77
2023/04/17 06:31:22;;;;;;;;;38.00;36.75;;;;;;;;5082269;27;11535;-72
2023/04/17 06:33:50;;;;;;;;;30.00;26.75;;;;;;;;5064593;28;11562;-74
2023/04/17 06:36:17;;;;;;;;;34.50;31.00;;;;;;;;5064707;28;11584;-80
2023/04/17 06:38:44;;;;;;;;;43.50;32.00;;;;;;;;5065245;28;11552;-74
2023/04/17 06:41:11;;;;;;;;;36.50;32.50;;;;;;;;5065466;28;12368;-73
2023/04/17 06:43:40;;;;;;;;;36.75;33.25;;;;;;;;5065197;28;11588;-76
2023/04/17 06:46:07;;;;;;;;;36.50;32.75;;;;;;;;5064871;28;11563;-74
2023/04/17 06:48:34;;;;;;;;;36.25;30.75;;;;;;;;5066236;28;11576;-77
2023/04/17 06:51:01;;;;;;;;;36.00;33.25;;;;;;;;5067288;28;11681;-77
2023/04/17 06:53:28;;;;;;;;;36.00;33.75;;;;;;;;5069492;28;11727;-78
2023/04/17 06:55:55;;;;;;;;;45.25;38.50;;;;;;;;5078897;28;11579;-77
2023/04/17 06:58:23;;;;;;;;;45.50;38.00;;;;;;;;5057434;28;11720;-70
2023/04/17 07:00:51;;;;;;;;;37.50;34.75;;;;;;;;5064029;27;11606;-75
2023/04/17 07:03:18;;;;;;;;;45.75;36.50;;;;;;;;5066446;28;11568;-76
2023/04/17 07:05:45;;;;;;;;;37.25;34.00;;;;;;;;5078219;28;11585;-73
2023/04/17 07:08:14;;;;;;;;;45.50;37.50;;;;;;;;5064332;28;11551;-78
2023/04/17 07:10:42;;;;;;;;;46.75;38.25;;;;;;;;5073352;28;11566;-74
2023/04/17 07:13:09;;;;;;;;;44.75;40.00;;;;;;;;5065789;28;12384;-72
2023/04/17 07:15:36;;;;;;;;;36.50;34.00;;;;;;;;5064394;28;11666;-77
2023/04/17 07:18:05;;;;;;;;;43.50;35.25;;;;;;;;5064083;28;11562;-76
2023/04/17 07:20:32;;;;;;;;;57.75;44.25;;;;;;;;5063917;28;11561;-72
2023/04/17 07:22:59;;;;;;;;;41.75;38.50;;;;;;;;5061121;28;11591;-79
2023/04/17 07:25:26;;;;;;;;;44.00;40.50;;;;;;;;5066068;28;12205;-72
2023/04/17 07:27:56;;;;;;;;;53.00;45.75;;;;;;;;5081359;28;11538;-71
2023/04/17 07:30:24;;;;;;;;;58.50;45.75;;;;;;;;5072157;28;11417;-74
2023/04/17 07:32:51;;;;;;;;;52.75;43.75;;;;;;;;5083796;28;11476;-73
2023/04/17 07:35:20;;;;;;;;;61.25;47.00;;;;;;;;5084002;28;11529;-73
2023/04/17 07:37:47;;;;;;;;;48.50;39.25;;;;;;;;5069970;28;11625;-74
2023/04/17 07:40:14;;;;;;;;;52.00;43.25;;;;;;;;5071092;28;11485;-76
2023/04/17 07:42:41;;;;;;;;;56.50;44.25;;;;;;;;5072773;28;11521;-77
2023/04/17 07:45:10;;;;;;;;;42.50;37.25;;;;;;;;5072069;28;11502;-84
2023/04/17 07:47:38;;;;;;;;;51.50;43.75;;;;;;;;5071403;28;11613;-89
2023/04/17 07:50:07;;;;;;;;;40.50;35.75;;;;;;;;5072045;28;12506;-74
2023/04/17 07:52:35;;;;;;;;;49.00;41.25;;;;;;;;5070306;28;11489;-76
2023/04/17 07:55:02;;;;;;;;;51.75;43.00;;;;;;;;5070181;28;11573;-71
2023/04/17 07:57:31;;;;;;;;;50.50;42.50;;;;;;;;5070365;28;11625;-74
2023/04/17 07:59:58;;;;;;;;;49.50;38.75;;;;;;;;5070315;28;11575;-74
2023/04/17 08:02:26;;;;;;;;;45.00;39.00;;;;;;;;5070130;28;11445;-75
2023/04/17 08:04:54;;;;;;;;;46.75;40.00;;;;;;;;5069860;28;11567;-76
2023/04/17 08:07:21;;;;;;;;;49.75;40.00;;;;;;;;5070547;28;11553;-78
2023/04/17 08:09:50;;;;;;;;;48.75;37.75;;;;;;;;5057567;28;11448;-72
2023/04/17 08:12:17;;;;;;;;;43.50;39.75;;;;;;;;5070698;28;11442;-76
2023/04/17 08:14:44;;;;;;;;;49.00;41.50;;;;;;;;5071946;28;11407;-73
2023/04/17 08:17:11;;;;;;;;;49.00;40.00;;;;;;;;5071395;28;11585;-76
2023/04/17 08:19:38;;;;;;;;;54.75;44.00;;;;;;;;5070023;28;11570;-74
2023/04/17 08:22:06;;;;;;;;;48.75;41.00;;;;;;;;5070629;28;11432;-74
2023/04/17 08:24:33;;;;;;;;;58.25;45.75;;;;;;;;5068347;28;11431;-75
2023/04/17 08:27:02;;;;;;;;;50.25;41.00;;;;;;;;5051686;28;11485;-79
2023/04/17 08:29:29;;;;;;;;;44.00;38.00;;;;;;;;5066451;28;11426;-71
2023/04/17 08:31:56;;;;;;;;;48.50;39.00;;;;;;;;5069941;28;11488;-76
2023/04/17 08:34:24;;;;;;;;;52.00;41.50;;;;;;;;5069661;28;11428;-78
2023/04/17 08:36:51;;;;;;;;;47.75;40.75;;;;;;;;5070299;28;11449;-78
2023/04/17 08:39:18;;;;;;;;;53.25;42.75;;;;;;;;5070139;28;11423;-79
2023/04/17 08:41:50;;;;;;;;;46.00;40.00;;;;;;;;5071214;28;11444;-78
2023/04/17 08:44:21;;;;;;;;;46.25;39.75;;;;;;;;5058341;28;11488;-75
2023/04/17 08:46:48;;;;;;;;;38.25;34.25;;;;;;;;5069934;28;11510;-77
2023/04/17 08:49:15;;;;;;;;;53.50;41.50;;;;;;;;5082450;28;11460;-77
2023/04/17 08:51:43;;;;;;;;;37.25;36.00;;;;;;;;5075589;28;11555;-76
2023/04/17 08:54:10;;;;;;;;;44.50;39.00;;;;;;;;5074079;28;11515;-77
2023/04/17 08:56:37;;;;;;;;;50.75;39.50;;;;;;;;5085130;28;11553;-78
2023/04/17 08:59:05;;;;;;;;;38.25;35.00;;;;;;;;5081353;28;11418;-76
2023/04/17 09:01:34;;;;;;;;;42.50;36.75;;;;;;;;5077724;28;11459;-71
2023/04/17 09:04:01;;;;;;;;;42.50;37.00;;;;;;;;5081435;28;11412;-78
2023/04/17 09:06:29;;;;;;;;;37.50;31.50;;;;;;;;5085300;28;12161;-73
2023/04/17 09:08:57;;;;;;;;;41.00;36.75;;;;;;;;5069037;28;11424;-74
2023/04/17 09:11:25;;;;;;;;;45.00;36.50;;;;;;;;5078810;28;11554;-76
2023/04/17 09:13:52;;;;;;;;;39.25;37.00;;;;;;;;5069569;28;11416;-77
2023/04/17 09:16:20;;;;;;;;;34.00;28.50;;;;;;;;5069956;28;11570;-73
2023/04/17 09:18:49;;;;;;;;;38.75;34.00;;;;;;;;5068136;28;11545;-71
2023/04/17 09:21:18;;;;;;;;;45.25;37.00;;;;;;;;5068436;28;11416;-76
2023/04/17 09:23:51;;;;;;;;;47.50;40.00;;;;;;;;5068748;28;11441;-79
2023/04/17 09:26:19;;;;;;;;;51.00;42.50;;;;;;;;5067840;28;11453;-71
2023/04/17 09:29:03;;;;;;;;;50.50;39.00;;;;;;;;5068934;28;11457;-72
2023/04/17 09:31:33;;;;;;;;;36.25;33.25;;;;;;;;5066583;28;11427;-74
2023/04/17 09:34:02;;;;;;;;;46.25;38.00;;;;;;;;5068951;28;11541;-75
2023/04/17 09:36:31;;;;;;;;;41.75;36.00;;;;;;;;5056953;28;11422;-76
2023/04/17 09:38:59;;;;;;;;;39.25;36.50;;;;;;;;5068010;28;11450;-74
2023/04/17 09:41:28;;;;;;;;;43.75;39.00;;;;;;;;5068150;28;11171;-71
2023/04/17 09:43:59;;;;;;;;;41.75;38.25;;;;;;;;5068815;28;11393;-74
2023/04/17 09:46:36;;;;;;;;;42.25;35.00;;;;;;;;5068644;28;11436;-73
2023/04/17 09:49:10;;;;;;;;;42.75;38.75;;;;;;;;5068471;28;12265;-73
2023/04/17 09:51:37;;;;;;;;;45.75;35.50;;;;;;;;5068627;28;11429;-74
2023/04/17 09:54:06;;;;;;;;;41.25;37.75;;;;;;;;5069020;28;11443;-73
2023/04/17 09:56:35;;;;;;;;;43.25;36.00;;;;;;;;5068123;28;11552;-73
2023/04/17 09:59:03;;;;;;;;;39.00;36.00;;;;;;;;5068000;28;11483;-75
2023/04/17 10:01:32;;;;;;;;;46.50;37.25;;;;;;;;5067157;28;11412;-73
2023/04/17 10:04:01;;;;;;;;;41.75;36.25;;;;;;;;5057780;28;11491;-74
2023/04/17 10:06:31;;;;;;;;;52.75;42.50;;;;;;;;5070529;28;11416;-74
2023/04/17 10:08:58;;;;;;;;;32.00;31.00;;;;;;;;5069833;28;11437;-74
2023/04/17 10:11:28;;;;;;;;;40.00;33.00;;;;;;;;5068842;28;11574;-77
2023/04/17 10:14:04;;;;;;;;;42.75;37.75;;;;;;;;5070800;28;11065;-74
2023/04/17 10:16:35;;;;;;;;;33.50;32.25;;;;;;;;5073212;28;11424;-74
2023/04/17 10:19:24;;;;;;;;;39.25;35.25;;;;;;;;5071146;28;12132;-80
2023/04/17 10:22:24;;;;;;;;;38.75;34.75;;;;;;;;5047909;28;11403;-75
2023/04/17 10:25:22;;;;;;;;;43.25;35.25;;;;;;;;5073101;28;11428;-73
2023/04/17 10:27:52;;;;;;;;;41.75;36.25;;;;;;;;5073544;28;11235;-80
2023/04/17 10:30:21;;;;;;;;;42.50;37.00;;;;;;;;5070322;28;11178;-76
2023/04/17 10:33:20;;;;;;;;;35.25;33.00;;;;;;;;5067740;28;11019;-72
2023/04/17 10:35:48;;;;;;;;;41.50;35.25;;;;;;;;5070161;28;11181;-78
2023/04/17 10:38:17;;;;;;;;;46.25;38.50;;;;;;;;5071837;28;11197;-79
2023/04/17 10:40:45;;;;;;;;;41.00;34.25;;;;;;;;5081811;28;11175;-79
2023/04/17 10:43:13;;;;;;;;;46.25;35.50;;;;;;;;5073415;28;11120;-73
2023/04/17 10:45:55;;;;;;;;;45.75;37.50;;;;;;;;5080993;28;11343;-72
2023/04/17 10:48:27;;;;;;;;;48.75;37.50;;;;;;;;5075496;28;11943;-74
2023/04/17 10:50:54;;;;;;;;;45.25;36.50;;;;;;;;5070971;28;11221;-72
2023/04/17 10:53:42;;;;;;;;;41.25;35.00;;;;;;;;5067118;28;11012;-73
2023/04/17 10:56:12;;;;;;;;;31.25;29.50;;;;;;;;5066691;28;11149;-72
2023/04/17 10:58:55;;;;;;;;;46.00;36.75;;;;;;;;5070227;28;11088;-73
2023/04/17 11:01:26;;;;;;;;;41.75;36.50;;;;;;;;5066467;28;11111;-73
2023/04/17 11:03:53;;;;;;;;;36.00;34.50;;;;;;;;5066485;28;10976;-75
2023/04/17 11:06:20;;;;;;;;;40.00;36.25;;;;;;;;5063178;28;11118;-72
2023/04/17 11:08:49;;;;;;;;;37.25;31.75;;;;;;;;5064190;28;11030;-71
2023/04/17 11:11:18;;;;;;;;;50.00;38.00;;;;;;;;5068575;28;11026;-72
2023/04/17 11:13:46;;;;;;;;;44.50;36.00;;;;;;;;5071865;28;11197;-74
2023/04/17 11:16:14;;;;;;;;;47.25;38.25;;;;;;;;5071305;28;11109;-74
2023/04/17 11:18:41;;;;;;;;;41.25;36.25;;;;;;;;5070314;28;11230;-74
2023/04/17 11:21:11;;;;;;;;;40.75;37.00;;;;;;;;5070566;28;11126;-71
2023/04/17 11:23:38;;;;;;;;;42.00;36.00;;;;;;;;5070835;28;11278;-74
2023/04/17 11:26:06;;;;;;;;;44.00;38.00;;;;;;;;5070733;28;11452;-74
2023/04/17 11:28:37;;;;;;;;;51.00;39.25;;;;;;;;5070628;28;11453;-72
2023/04/17 11:31:05;;;;;;;;;39.00;35.25;;;;;;;;5070477;28;11480;-72
2023/04/17 11:33:38;;;;;;;;;40.00;33.25;;;;;;;;5071101;28;11500;-73
2023/04/17 11:36:06;;;;;;;;;41.50;36.25;;;;;;;;5071654;28;11340;-73
2023/04/17 11:38:33;;;;;;;;;40.25;37.00;;;;;;;;5070848;28;11253;-76
2023/04/17 11:41:02;;;;;;;;;41.75;36.25;;;;;;;;5069965;28;11108;-71
2023/04/17 11:43:30;;;;;;;;;44.50;35.50;;;;;;;;5063451;28;11280;-71
2023/04/17 11:46:01;;;;;;;;;48.75;40.25;;;;;;;;5072868;28;11216;-71
2023/04/17 11:48:31;;;;;;;;;38.25;31.75;;;;;;;;5072679;28;11951;-78
2023/04/17 11:51:01;;;;;;;;;43.25;35.75;;;;;;;;5069834;28;11186;-78
2023/04/17 11:53:28;;;;;;;;;46.00;37.25;;;;;;;;5074569;28;11046;-76
2023/04/17 11:56:15;;;;;;;;;46.25;36.00;;;;;;;;5072784;28;11181;-77
2023/04/17 11:58:49;;;;;;;;;37.25;34.25;;;;;;;;5074477;28;10921;-79
2023/04/17 12:01:19;;;;;;;;;39.75;35.50;;;;;;;;5072917;28;10793;-77
2023/04/17 12:03:47;;;;;;;;;50.25;38.50;;;;;;;;5070662;28;11017;-78
2023/04/17 12:06:15;;;;;;;;;44.75;36.00;;;;;;;;5074113;28;11114;-75
2023/04/17 12:08:44;;;;;;;;;40.00;33.50;;;;;;;;5074431;28;10791;-74
2023/04/17 12:11:23;;;;;;;;;36.00;29.25;;;;;;;;5073964;28;10954;-77
2023/04/17 12:13:51;;;;;;;;;37.25;35.25;;;;;;;;5068698;28;11661;-75
2023/04/17 12:16:19;;;;;;;;;45.25;37.00;;;;;;;;5070528;28;10628;-71
2023/04/17 12:18:47;;;;;;;;;42.75;36.00;;;;;;;;5070702;28;10731;-71
2023/04/17 12:21:14;;;;;;;;;46.50;35.25;;;;;;;;5071184;28;11000;-80
2023/04/17 12:23:42;;;;;;;;;40.50;35.25;;;;;;;;5070556;28;10806;-79
2023/04/17 12:26:09;;;;;;;;;41.00;35.25;;;;;;;;5070910;28;10798;-79
2023/04/17 12:28:36;;;;;;;;;38.00;34.50;;;;;;;;5087955;28;10625;-78
2023/04/17 12:31:04;;;;;;;;;35.25;34.25;;;;;;;;5081007;28;10583;-76
2023/04/17 12:33:33;;;;;;;;;39.00;34.25;;;;;;;;5079204;28;10404;-74
2023/04/17 12:36:01;;;;;;;;;37.75;33.25;;;;;;;;5069191;28;10728;-75
2023/04/17 12:38:28;;;;;;;;;37.25;33.25;;;;;;;;5077618;28;10552;-74
2023/04/17 12:40:55;;;;;;;;;43.25;36.75;;;;;;;;5080508;28;10648;-73
2023/04/17 12:43:23;;;;;;;;;38.50;35.75;;;;;;;;5080328;28;10915;-72
2023/04/17 12:45:50;;;;;;;;;48.25;39.00;;;;;;;;5079555;28;10797;-71
2023/04/17 12:48:17;;;;;;;;;46.00;38.00;;;;;;;;5080488;28;10712;-75
2023/04/17 12:50:46;;;;;;;;;32.00;29.75;;;;;;;;5071956;28;10821;-75
2023/04/17 12:53:14;;;;;;;;;31.00;26.75;;;;;;;;5080812;28;10252;-72
2023/04/17 12:55:42;;;;;;;;;34.00;28.50;;;;;;;;5077425;28;10412;-75
2023/04/17 12:58:10;;;;;;;;;33.50;31.50;;;;;;;;5080708;28;10577;-74
2023/04/17 13:00:37;;;;;;;;;32.00;31.50;;;;;;;;5075537;28;10316;-74
2023/04/17 13:03:05;;;;;;;;;31.50;31.00;;;;;;;;5073810;28;10229;-72
2023/04/17 13:05:32;;;;;;;;;46.75;39.00;;;;;;;;5075262;28;10356;-72
2023/04/17 13:08:01;;;;;;;;;50.00;40.00;;;;;;;;5080309;28;10403;-71
2023/04/17 13:10:28;;;;;;;;;43.00;36.75;;;;;;;;5075000;28;10787;-71
2023/04/17 13:12:55;;;;;;;;;37.75;35.00;;;;;;;;5068819;28;10565;-72
2023/04/17 13:15:23;;;;;;;;;42.75;35.50;;;;;;;;5069412;28;10354;-72
2023/04/17 13:17:50;;;;;;;;;42.75;34.25;;;;;;;;5068102;28;10332;-74
2023/04/17 13:20:17;;;;;;;;;36.00;31.25;;;;;;;;5069009;28;10415;-77
2023/04/17 13:22:44;;;;;;;;;46.25;37.50;;;;;;;;5068349;28;10280;-73
2023/04/17 13:25:13;;;;;;;;;38.50;34.50;;;;;;;;5056841;28;10686;-75
2023/04/17 13:27:40;;;;;;;;;39.00;33.25;;;;;;;;5067123;28;10262;-76
2023/04/17 13:30:08;;;;;;;;;40.75;33.50;;;;;;;;5056406;28;10217;-71
2023/04/17 13:32:35;;;;;;;;;39.25;35.00;;;;;;;;5068436;28;10240;-71
2023/04/17 13:35:03;;;;;;;;;38.00;32.25;;;;;;;;5059734;28;10362;-73
2023/04/17 13:37:31;;;;;;;;;36.50;32.75;;;;;;;;5064228;28;10342;-72
2023/04/17 13:39:58;;;;;;;;;34.75;33.00;;;;;;;;5068618;28;10287;-73
2023/04/17 13:42:27;;;;;;;;;33.75;32.00;;;;;;;;5068613;28;10229;-74
2023/04/17 13:44:54;;;;;;;;;33.25;32.75;;;;;;;;5059833;28;10309;-73
2023/04/17 13:47:21;;;;;;;;;38.25;33.50;;;;;;;;5066802;28;10146;-75
2023/04/17 13:49:48;;;;;;;;;33.50;32.25;;;;;;;;5068795;28;10232;-74
2023/04/17 13:52:15;;;;;;;;;38.00;33.25;;;;;;;;5057288;28;11067;-78
2023/04/17 13:54:43;;;;;;;;;37.25;33.00;;;;;;;;5068802;28;10331;-74
2023/04/17 13:57:10;;;;;;;;;37.50;33.00;;;;;;;;5068753;28;10243;-74
2023/04/17 13:59:39;;;;;;;;;36.25;32.00;;;;;;;;5068344;28;10181;-72
2023/04/17 14:02:06;;;;;;;;;37.50;34.00;;;;;;;;5068761;28;10443;-72
2023/04/17 14:04:33;;;;;;;;;39.50;35.75;;;;;;;;5068571;28;11192;-75
2023/04/17 14:07:00;;;;;;;;;41.75;35.75;;;;;;;;5069294;28;10496;-72
2023/04/17 14:09:28;;;;;;;;;40.50;36.50;;;;;;;;5068684;28;10419;-74
2023/04/17 14:11:55;;;;;;;;;37.00;33.00;;;;;;;;5068983;28;10272;-77
2023/04/17 14:14:23;;;;;;;;;35.75;33.25;;;;;;;;5068582;28;10337;-77
2023/04/17 14:16:51;;;;;;;;;40.75;33.00;;;;;;;;5069361;28;10103;-80
2023/04/17 14:19:18;;;;;;;;;49.25;39.75;;;;;;;;5077490;28;10160;-71
2023/04/17 14:21:45;;;;;;;;;39.50;34.25;;;;;;;;5070431;28;10386;-79
2023/04/17 14:24:12;;;;;;;;;34.50;31.00;;;;;;;;5080396;28;10153;-74
2023/04/17 14:26:40;;;;;;;;;33.00;31.25;;;;;;;;5072144;28;9926;-74
2023/04/17 14:29:09;;;;;;;;;43.50;35.00;;;;;;;;5077608;28;10535;-77
2023/04/17 14:31:36;;;;;;;;;34.00;32.50;;;;;;;;5085250;28;10025;-72